createdAt,value
2019-05-25T00:02:05.786Z,14.60
2019-05-25T00:04:34.541Z,14.47
2019-05-25T00:07:03.387Z,14.10
2019-05-25T00:09:32.053Z,15.20
2019-05-25T00:12:01.299Z,15.10
2019-05-25T00:14:30.083Z,15.32
2019-05-25T00:16:58.691Z,15.03
2019-05-25T00:19:27.303Z,15.87
2019-05-25T00:21:56.019Z,14.87
2019-05-25T00:24:24.684Z,16.00
2019-05-25T00:26:53.445Z,15.30
2019-05-25T00:29:22.058Z,16.40
2019-05-25T00:31:53.493Z,15.93
2019-05-25T00:34:22.171Z,16.10
2019-05-25T00:36:50.815Z,15.13
2019-05-25T00:39:19.481Z,14.83
2019-05-25T00:41:48.172Z,15.10
2019-05-25T00:44:16.979Z,16.70
2019-05-25T00:46:45.641Z,17.37
2019-05-25T00:49:14.237Z,16.47
2019-05-25T00:51:43.066Z,17.00
2019-05-25T00:54:25.345Z,17.40
2019-05-25T00:56:42.075Z,17.03
2019-05-25T00:59:10.730Z,17.43
2019-05-25T01:01:39.517Z,17.93
2019-05-25T01:04:08.340Z,16.70
2019-05-25T01:06:37.025Z,17.70
2019-05-25T01:09:07.014Z,18.10
2019-05-25T01:11:35.726Z,17.67
2019-05-25T01:14:05.438Z,19.17
2019-05-25T01:16:34.146Z,19.67
2019-05-25T01:19:02.902Z,18.10
2019-05-25T01:21:32.675Z,20.27
2019-05-25T01:24:01.392Z,19.47
2019-05-25T01:26:30.097Z,19.87
2019-05-25T01:28:58.912Z,20.13
2019-05-25T01:31:27.640Z,20.60
2019-05-25T01:33:56.263Z,20.40
2019-05-25T01:36:25.057Z,19.43
2019-05-25T01:38:53.837Z,20.90
2019-05-25T01:41:22.536Z,20.10
2019-05-25T01:43:51.297Z,20.60
2019-05-25T01:46:20.041Z,21.80
2019-05-25T01:48:48.815Z,23.53
2019-05-25T01:51:17.526Z,24.43
2019-05-25T01:53:46.356Z,26.67
2019-05-25T01:56:15.038Z,27.27
2019-05-25T01:58:43.653Z,27.07
2019-05-25T02:01:12.263Z,25.10
2019-05-25T02:03:40.880Z,26.03
2019-05-25T02:06:09.637Z,25.57
2019-05-25T02:08:38.469Z,25.80
2019-05-25T02:11:07.215Z,28.47
2019-05-25T02:13:35.950Z,30.70
2019-05-25T02:16:04.894Z,29.13
2019-05-25T02:18:33.479Z,29.60
2019-05-25T02:21:02.148Z,26.57
2019-05-25T02:23:30.747Z,24.63
2019-05-25T02:25:59.348Z,24.83
2019-05-25T02:28:28.143Z,21.27
2019-05-25T02:30:58.157Z,20.17
2019-05-25T02:33:26.873Z,18.70
2019-05-25T02:35:55.568Z,19.73
2019-05-25T02:38:24.251Z,18.37
2019-05-25T02:40:52.883Z,19.20
2019-05-25T02:43:21.577Z,17.90
2019-05-25T02:45:50.334Z,18.53
2019-05-25T02:48:19.012Z,18.10
2019-05-25T02:50:47.873Z,18.33
2019-05-25T02:53:16.519Z,17.93
2019-05-25T02:55:45.245Z,19.40
2019-05-25T02:58:14.014Z,18.27
2019-05-25T03:00:42.673Z,18.60
2019-05-25T03:03:11.475Z,18.10
2019-05-25T03:05:40.589Z,17.77
2019-05-25T03:08:09.247Z,18.63
2019-05-25T03:10:38.609Z,17.57
2019-05-25T03:13:07.270Z,17.47
2019-05-25T03:15:35.967Z,17.20
2019-05-25T03:18:04.676Z,17.17
2019-05-25T03:20:33.457Z,18.47
2019-05-25T03:23:02.151Z,18.17
2019-05-25T03:25:30.962Z,17.97
2019-05-25T03:27:59.535Z,18.20
2019-05-25T03:30:33.539Z,18.17
2019-05-25T03:33:02.500Z,18.27
2019-05-25T03:35:31.248Z,17.37
2019-05-25T03:37:59.994Z,17.53
2019-05-25T03:40:28.664Z,19.37
2019-05-25T03:42:57.340Z,17.90
2019-05-25T03:45:26.161Z,17.40
2019-05-25T03:47:54.864Z,17.30
2019-05-25T03:50:23.672Z,17.60
2019-05-25T03:52:52.373Z,16.57
2019-05-25T03:55:21.015Z,17.03
2019-05-25T03:57:49.682Z,16.80
2019-05-25T04:00:38.304Z,18.13
2019-05-25T04:03:07.412Z,16.17
2019-05-25T04:05:36.005Z,16.13
2019-05-25T04:08:05.070Z,17.67
2019-05-25T04:10:33.851Z,16.23
2019-05-25T04:13:02.585Z,15.60
2019-05-25T04:15:31.345Z,14.60
2019-05-25T04:18:00.128Z,15.72
2019-05-25T04:20:28.733Z,14.97
2019-05-25T04:22:57.386Z,14.93
2019-05-25T04:25:26.222Z,14.10
2019-05-25T04:27:54.799Z,13.43
2019-05-25T04:30:23.590Z,13.88
2019-05-25T04:32:52.211Z,14.70
2019-05-25T04:35:21.404Z,14.95
2019-05-25T04:37:50.130Z,15.08
2019-05-25T04:40:18.875Z,14.53
2019-05-25T04:42:47.660Z,15.43
2019-05-25T04:45:16.933Z,15.28
2019-05-25T04:47:45.806Z,15.03
2019-05-25T04:50:14.759Z,16.25
2019-05-25T04:52:43.458Z,16.30
2019-05-25T04:55:12.436Z,16.40
2019-05-25T04:57:41.155Z,16.30
2019-05-25T05:00:10.514Z,15.50
2019-05-25T05:02:39.216Z,15.55
2019-05-25T05:05:08.526Z,16.52
2019-05-25T05:07:37.208Z,15.05
2019-05-25T05:10:07.880Z,15.65
2019-05-25T05:12:36.650Z,15.95
2019-05-25T05:15:08.833Z,15.38
2019-05-25T05:17:37.653Z,14.87
2019-05-25T05:20:08.975Z,14.20
2019-05-25T05:22:37.682Z,15.10
2019-05-25T05:25:08.162Z,14.70
2019-05-25T05:27:38.044Z,15.28
2019-05-25T05:30:08.848Z,14.35
2019-05-25T05:32:37.538Z,12.73
2019-05-25T05:35:09.208Z,13.10
2019-05-25T05:37:37.985Z,12.50
2019-05-25T05:40:09.826Z,12.00
2019-05-25T05:42:39.740Z,12.18
2019-05-25T05:45:09.285Z,11.53
2019-05-25T05:47:39.266Z,10.78
2019-05-25T05:50:09.602Z,10.58
2019-05-25T05:52:39.502Z,9.55
2019-05-25T05:55:12.372Z,9.50
2019-05-25T05:57:41.053Z,10.08
2019-05-25T06:00:11.334Z,10.05
2019-05-25T06:02:40.132Z,9.45
2019-05-25T06:05:09.459Z,9.50
2019-05-25T06:07:38.188Z,8.98
2019-05-25T06:10:08.043Z,7.80
2019-05-25T06:12:36.713Z,8.83
2019-05-25T06:15:07.791Z,7.50
2019-05-25T06:17:36.470Z,6.97
2019-05-25T06:20:08.811Z,7.60
2019-05-25T06:22:37.572Z,6.53
2019-05-25T06:25:07.599Z,6.67
2019-05-25T06:27:36.390Z,6.83
2019-05-25T06:30:09.429Z,6.75
2019-05-25T06:32:38.234Z,6.62
2019-05-25T06:35:07.903Z,6.33
2019-05-25T06:37:36.769Z,6.20
2019-05-25T06:40:06.995Z,6.40
2019-05-25T06:42:35.846Z,5.90
2019-05-25T06:45:05.977Z,5.97
2019-05-25T06:47:34.802Z,4.95
2019-05-25T06:50:10.085Z,5.55
2019-05-25T06:52:38.924Z,5.58
2019-05-25T06:55:08.646Z,5.80
2019-05-25T06:57:43.401Z,5.42
2019-05-25T07:00:09.649Z,6.80
2019-05-25T07:02:42.900Z,5.53
2019-05-25T07:05:11.680Z,5.87
2019-05-25T07:07:40.576Z,5.22
2019-05-25T07:10:09.765Z,5.55
2019-05-25T07:12:38.551Z,5.62
2019-05-25T07:15:08.865Z,5.60
2019-05-25T07:17:37.626Z,5.42
2019-05-25T07:20:08.771Z,4.50
2019-05-25T07:22:57.020Z,3.95
2019-05-25T07:25:25.774Z,4.87
2019-05-25T07:27:59.860Z,4.70
2019-05-25T07:30:24.913Z,4.10
2019-05-25T07:32:53.654Z,4.40
2019-05-25T07:35:22.394Z,4.05
2019-05-25T07:37:51.129Z,3.62
2019-05-25T07:40:19.870Z,2.80
2019-05-25T07:42:48.522Z,3.67
2019-05-25T07:45:17.705Z,3.22
2019-05-25T07:47:46.441Z,2.77
2019-05-25T07:50:17.001Z,3.15
2019-05-25T07:52:45.727Z,3.83
2019-05-25T07:55:14.543Z,3.25
2019-05-25T07:57:43.243Z,3.27
2019-05-25T08:00:12.562Z,3.22
2019-05-25T08:02:41.987Z,3.83
2019-05-25T08:05:10.696Z,3.35
2019-05-25T08:07:41.030Z,3.35
2019-05-25T08:10:11.306Z,2.62
2019-05-25T08:12:40.128Z,2.95
2019-05-25T08:15:09.816Z,2.12
2019-05-25T08:17:38.619Z,2.30
2019-05-25T08:20:08.017Z,2.25
2019-05-25T08:22:36.828Z,2.77
2019-05-25T08:25:07.397Z,2.77
2019-05-25T08:27:37.830Z,2.22
2019-05-25T08:30:07.972Z,2.95
2019-05-25T08:32:50.931Z,2.20
2019-05-25T08:35:15.086Z,2.47
2019-05-25T08:37:43.844Z,2.25
2019-05-25T08:40:12.670Z,2.40
2019-05-25T08:42:41.418Z,2.95
2019-05-25T08:45:10.762Z,2.52
2019-05-25T08:47:39.496Z,2.25
2019-05-25T08:50:08.810Z,2.05
2019-05-25T08:52:38.127Z,2.00
2019-05-25T08:55:10.547Z,2.08
2019-05-25T08:57:39.302Z,1.98
2019-05-25T09:00:09.018Z,2.20
2019-05-25T09:02:37.759Z,2.37
2019-05-25T09:05:07.980Z,2.30
2019-05-25T09:07:36.679Z,2.12
2019-05-25T09:10:07.307Z,2.50
2019-05-25T09:12:36.158Z,2.10
2019-05-25T09:15:06.761Z,1.80
2019-05-25T09:17:35.460Z,2.27
2019-05-25T09:20:07.066Z,2.08
2019-05-25T09:22:35.930Z,2.00
2019-05-25T09:25:06.194Z,1.98
2019-05-25T09:27:34.914Z,2.42
2019-05-25T09:30:05.242Z,2.45
2019-05-25T09:32:34.060Z,2.40
2019-05-25T09:35:02.760Z,2.62
2019-05-25T09:37:31.574Z,2.58
2019-05-25T09:40:00.312Z,2.10
2019-05-25T09:42:28.990Z,2.45
2019-05-25T09:44:57.833Z,2.70
2019-05-25T09:47:26.490Z,2.35
2019-05-25T09:49:55.306Z,2.72
2019-05-25T09:52:24.138Z,2.55
2019-05-25T09:54:55.642Z,2.87
2019-05-25T09:57:23.238Z,3.25
2019-05-25T09:59:51.934Z,2.92
2019-05-25T10:02:20.674Z,3.30
2019-05-25T10:04:49.446Z,3.40
2019-05-25T10:07:18.244Z,3.37
2019-05-25T10:09:47.000Z,3.27
2019-05-25T10:12:16.390Z,3.08
2019-05-25T10:14:45.261Z,3.12
2019-05-25T10:17:14.006Z,2.87
2019-05-25T10:19:42.925Z,3.10
2019-05-25T10:22:11.662Z,3.00
2019-05-25T10:24:40.388Z,3.10
2019-05-25T10:27:09.082Z,3.00
2019-05-25T10:29:40.790Z,2.98
2019-05-25T10:32:09.701Z,3.65
2019-05-25T10:34:38.576Z,3.20
2019-05-25T10:37:08.629Z,3.22
2019-05-25T10:39:37.324Z,2.87
2019-05-25T10:42:06.112Z,2.87
2019-05-25T10:44:34.892Z,2.87
2019-05-25T10:47:03.774Z,3.27
2019-05-25T10:49:32.546Z,3.25
2019-05-25T10:52:01.296Z,2.75
2019-05-25T10:54:30.121Z,2.62
2019-05-25T10:56:58.901Z,2.80
2019-05-25T10:59:27.595Z,2.87
2019-05-25T11:01:56.346Z,2.47
2019-05-25T11:04:25.062Z,3.12
2019-05-25T11:06:53.785Z,3.00
2019-05-25T11:09:22.601Z,3.77
2019-05-25T11:11:51.404Z,3.27
2019-05-25T11:14:20.174Z,3.00
2019-05-25T11:16:50.383Z,2.65
2019-05-25T11:19:19.076Z,2.60
2019-05-25T11:21:47.863Z,2.90
2019-05-25T11:24:16.729Z,2.95
2019-05-25T11:26:45.564Z,3.58
2019-05-25T11:29:14.258Z,3.10
2019-05-25T11:31:43.021Z,3.12
2019-05-25T11:34:11.680Z,3.67
2019-05-25T11:36:48.108Z,3.60
2019-05-25T11:39:16.962Z,3.40
2019-05-25T11:41:47.190Z,3.40
2019-05-25T11:44:15.886Z,3.42
2019-05-25T11:46:44.739Z,3.30
2019-05-25T11:49:22.119Z,3.30
2019-05-25T11:51:43.977Z,3.67
2019-05-25T11:54:12.578Z,3.52
2019-05-25T11:56:41.380Z,3.40
2019-05-25T11:59:10.170Z,3.30
2019-05-25T12:01:41.788Z,3.80
2019-05-25T12:04:10.748Z,3.27
2019-05-25T12:06:39.472Z,2.77
2019-05-25T12:09:08.724Z,2.75
2019-05-25T12:11:37.624Z,2.80
2019-05-25T12:14:06.328Z,2.62
2019-05-25T12:16:35.048Z,2.80
2019-05-25T12:19:03.839Z,2.50
2019-05-25T12:21:32.615Z,2.37
2019-05-25T12:24:01.583Z,3.35
2019-05-25T12:26:30.259Z,2.90
2019-05-25T12:28:58.828Z,2.85
2019-05-25T12:31:27.697Z,2.65
2019-05-25T12:33:56.397Z,2.10
2019-05-25T12:36:25.157Z,2.30
2019-05-25T12:38:53.801Z,2.40
2019-05-25T12:41:22.592Z,2.60
2019-05-25T12:43:52.562Z,2.60
2019-05-25T12:46:21.261Z,2.22
2019-05-25T12:48:49.873Z,2.45
2019-05-25T12:51:18.550Z,2.67
2019-05-25T12:53:47.268Z,2.72
2019-05-25T12:56:15.921Z,2.83
2019-05-25T12:58:44.727Z,2.45
2019-05-25T13:01:13.578Z,2.85
2019-05-25T13:03:42.381Z,2.67
2019-05-25T13:06:11.313Z,2.50
2019-05-25T13:08:43.739Z,2.70
2019-05-25T13:11:10.854Z,2.67
2019-05-25T13:13:40.999Z,3.75
2019-05-25T13:16:09.862Z,3.35
2019-05-25T13:18:38.601Z,3.50
2019-05-25T13:21:07.271Z,3.22
2019-05-25T13:23:35.883Z,3.67
2019-05-25T13:26:04.655Z,4.37
2019-05-25T13:28:33.391Z,4.78
2019-05-25T13:31:11.234Z,5.12
2019-05-25T13:33:32.271Z,5.40
2019-05-25T13:36:00.951Z,5.30
2019-05-25T13:38:29.621Z,5.20
2019-05-25T13:40:58.402Z,5.72
2019-05-25T13:43:27.408Z,4.97
2019-05-25T13:45:56.079Z,4.67
2019-05-25T13:48:24.887Z,5.55
2019-05-25T13:50:53.528Z,5.47
2019-05-25T13:53:22.179Z,5.75
2019-05-25T13:55:50.904Z,5.30
2019-05-25T13:58:20.445Z,5.60
2019-05-25T14:00:49.041Z,5.87
2019-05-25T14:03:17.901Z,5.55
2019-05-25T14:05:52.615Z,6.28
2019-05-25T14:08:17.061Z,6.45
2019-05-25T14:10:45.819Z,5.90
2019-05-25T14:13:14.592Z,5.45
2019-05-25T14:15:43.191Z,5.95
2019-05-25T14:18:11.900Z,5.83
2019-05-25T14:20:40.572Z,5.95
2019-05-25T14:23:09.218Z,7.05
2019-05-25T14:25:37.951Z,6.58
2019-05-25T14:28:06.642Z,7.12
2019-05-25T14:30:35.287Z,7.17
2019-05-25T14:33:04.072Z,7.53
2019-05-25T14:35:34.365Z,6.47
2019-05-25T14:38:03.275Z,8.83
2019-05-25T14:40:32.003Z,6.92
2019-05-25T14:43:00.615Z,6.92
2019-05-25T14:45:29.327Z,8.60
2019-05-25T14:47:57.963Z,7.20
2019-05-25T14:50:27.193Z,6.95
2019-05-25T14:52:55.951Z,6.83
2019-05-25T14:55:24.847Z,6.80
2019-05-25T14:57:56.759Z,7.55
2019-05-25T15:00:28.397Z,7.53
2019-05-25T15:02:57.133Z,7.05
2019-05-25T15:05:25.860Z,6.33
2019-05-25T15:07:54.715Z,6.65
2019-05-25T15:10:23.723Z,6.37
2019-05-25T15:12:52.520Z,6.33
2019-05-25T15:15:21.361Z,6.08
2019-05-25T15:17:50.225Z,4.85
2019-05-25T15:20:19.445Z,5.37
2019-05-25T15:22:48.309Z,5.25
2019-05-25T15:25:17.129Z,4.75
2019-05-25T15:27:46.035Z,4.45
2019-05-25T15:30:15.022Z,4.28
2019-05-25T15:32:44.171Z,4.53
2019-05-25T15:35:13.109Z,3.95
2019-05-25T15:37:41.851Z,3.62
2019-05-25T15:40:11.932Z,3.72
2019-05-25T15:42:40.840Z,3.80
2019-05-25T15:45:10.079Z,3.35
2019-05-25T15:47:38.849Z,3.60
2019-05-25T15:50:13.219Z,3.37
2019-05-25T15:52:41.895Z,3.62
2019-05-25T15:55:11.169Z,2.87
2019-05-25T15:57:39.955Z,2.80
2019-05-25T16:00:11.063Z,2.65
2019-05-25T16:02:39.838Z,2.42
2019-05-25T16:05:09.813Z,2.27
2019-05-25T16:07:44.050Z,2.60
2019-05-25T16:10:13.171Z,2.47
2019-05-25T16:12:41.797Z,2.40
2019-05-25T16:15:10.868Z,2.35
2019-05-25T16:17:39.754Z,2.55
2019-05-25T16:20:09.319Z,2.40
2019-05-25T16:22:38.141Z,1.80
2019-05-25T16:25:09.919Z,2.22
2019-05-25T16:27:38.553Z,2.60
2019-05-25T16:30:07.974Z,1.65
2019-05-25T16:33:07.105Z,1.90
2019-05-25T16:35:07.944Z,2.45
2019-05-25T16:37:36.964Z,1.80
2019-05-25T16:40:07.582Z,2.05
2019-05-25T16:42:36.336Z,2.27
2019-05-25T16:45:06.656Z,2.37
2019-05-25T16:47:35.861Z,1.72
2019-05-25T16:50:09.201Z,2.20
2019-05-25T16:52:37.990Z,1.70
2019-05-25T16:55:07.785Z,1.60
2019-05-25T16:57:36.562Z,1.42
2019-05-25T17:00:07.535Z,1.60
2019-05-25T17:02:36.200Z,1.62
2019-05-25T17:05:05.371Z,1.50
2019-05-25T17:07:34.234Z,1.60
2019-05-25T17:10:03.312Z,1.75
2019-05-25T17:12:32.120Z,1.55
2019-05-25T17:15:00.927Z,2.08
2019-05-25T17:17:29.648Z,1.98
2019-05-25T17:19:58.516Z,1.80
2019-05-25T17:22:27.214Z,2.47
2019-05-25T17:24:59.296Z,2.00
2019-05-25T17:27:26.483Z,2.12
2019-05-25T17:29:55.228Z,1.72
2019-05-25T17:32:24.046Z,2.20
2019-05-25T17:34:55.095Z,2.15
2019-05-25T17:37:23.940Z,2.30
2019-05-25T17:39:52.722Z,1.90
2019-05-25T17:42:21.425Z,2.30
2019-05-25T17:44:50.160Z,1.92
2019-05-25T17:47:19.449Z,1.85
2019-05-25T17:49:48.188Z,2.25
2019-05-25T17:52:16.892Z,3.20
2019-05-25T17:54:45.814Z,2.58
2019-05-25T17:57:14.618Z,2.45
2019-05-25T17:59:43.447Z,2.80
2019-05-25T18:02:12.242Z,2.20
2019-05-25T18:04:40.896Z,2.00
2019-05-25T18:07:09.799Z,2.02
2019-05-25T18:09:38.626Z,2.47
2019-05-25T18:12:07.522Z,2.60
2019-05-25T18:14:36.417Z,2.70
2019-05-25T18:17:05.257Z,2.52
2019-05-25T18:19:34.055Z,2.02
2019-05-25T18:22:02.853Z,2.02
2019-05-25T18:24:31.654Z,2.22
2019-05-25T18:27:00.336Z,2.08
2019-05-25T18:29:29.187Z,2.45
2019-05-25T18:31:58.032Z,2.72
2019-05-25T18:34:26.768Z,2.62
2019-05-25T18:36:55.688Z,1.98
2019-05-25T18:39:24.446Z,2.27
2019-05-25T18:41:53.340Z,2.40
2019-05-25T18:44:22.159Z,2.05
2019-05-25T18:46:51.028Z,2.00
2019-05-25T18:49:19.835Z,1.98
2019-05-25T18:51:48.678Z,1.92
2019-05-25T18:54:17.302Z,2.25
2019-05-25T18:56:46.055Z,1.72
2019-05-25T18:59:14.874Z,1.90
2019-05-25T19:01:43.932Z,2.08
2019-05-25T19:04:12.689Z,1.90
2019-05-25T19:06:41.515Z,1.92
2019-05-25T19:09:11.182Z,1.77
2019-05-25T19:11:39.989Z,1.90
2019-05-25T19:14:08.904Z,1.90
2019-05-25T19:16:37.617Z,1.55
2019-05-25T19:19:06.406Z,1.50
2019-05-25T19:21:35.142Z,1.85
2019-05-25T19:24:03.888Z,1.60
2019-05-25T19:26:33.011Z,1.72
2019-05-25T19:29:05.350Z,1.82
2019-05-25T19:31:32.029Z,1.95
2019-05-25T19:34:00.666Z,1.67
2019-05-25T19:36:29.445Z,1.72
2019-05-25T19:38:58.276Z,1.67
2019-05-25T19:41:26.958Z,1.85
2019-05-25T19:43:55.814Z,2.15
2019-05-25T19:46:24.517Z,1.90
2019-05-25T19:48:53.265Z,1.52
2019-05-25T19:51:22.034Z,1.67
2019-05-25T19:53:50.865Z,2.37
2019-05-25T19:56:19.521Z,2.60
2019-05-25T19:58:48.390Z,2.30
2019-05-25T20:01:17.198Z,2.50
2019-05-25T20:03:45.963Z,2.90
2019-05-25T20:06:14.862Z,4.53
2019-05-25T20:08:43.732Z,7.22
2019-05-25T20:11:12.504Z,8.15
2019-05-25T20:13:41.219Z,9.80
2019-05-25T20:16:10.111Z,8.08
2019-05-25T20:18:38.864Z,6.20
2019-05-25T20:21:09.212Z,5.58
2019-05-25T20:23:40.015Z,4.03
2019-05-25T20:26:08.787Z,3.60
2019-05-25T20:28:37.440Z,3.05
2019-05-25T20:31:06.165Z,3.95
2019-05-25T20:33:35.217Z,3.55
2019-05-25T20:36:15.737Z,3.50
2019-05-25T20:38:44.706Z,3.40
2019-05-25T20:41:13.550Z,3.50
2019-05-25T20:43:42.290Z,3.53
2019-05-25T20:46:11.158Z,3.95
2019-05-25T20:48:39.911Z,4.30
2019-05-25T20:51:09.668Z,4.10
2019-05-25T20:53:38.429Z,3.67
2019-05-25T20:56:07.342Z,3.30
2019-05-25T20:58:39.013Z,3.58
2019-05-25T21:01:06.636Z,3.52
2019-05-25T21:03:35.531Z,4.40
2019-05-25T21:06:04.331Z,4.42
2019-05-25T21:08:33.096Z,4.33
2019-05-25T21:11:01.745Z,4.37
2019-05-25T21:13:31.065Z,4.30
2019-05-25T21:15:59.865Z,4.20
2019-05-25T21:18:28.590Z,3.63
2019-05-25T21:21:01.633Z,4.80
2019-05-25T21:23:30.294Z,4.40
2019-05-25T21:25:59.178Z,4.40
2019-05-25T21:28:27.873Z,4.37
2019-05-25T21:30:56.508Z,4.53
2019-05-25T21:33:25.247Z,4.73
2019-05-25T21:36:07.701Z,4.62
2019-05-25T21:38:24.325Z,5.30
2019-05-25T21:40:53.043Z,4.55
2019-05-25T21:43:21.792Z,4.87
2019-05-25T21:45:50.532Z,4.57
2019-05-25T21:48:19.324Z,4.90
2019-05-25T21:50:47.916Z,5.83
2019-05-25T21:53:16.537Z,5.67
2019-05-25T21:55:45.114Z,6.40
2019-05-25T21:58:13.818Z,5.93
2019-05-25T22:00:43.313Z,6.67
2019-05-25T22:03:12.106Z,6.67
2019-05-25T22:05:40.782Z,6.63
2019-05-25T22:08:09.482Z,7.73
2019-05-25T22:10:38.343Z,6.80
2019-05-25T22:13:21.321Z,6.93
2019-05-25T22:15:37.295Z,5.77
2019-05-25T22:18:05.978Z,6.87
2019-05-25T22:20:34.642Z,7.00
2019-05-25T22:23:03.238Z,6.73
2019-05-25T22:25:31.892Z,6.10
2019-05-25T22:28:00.534Z,6.37
2019-05-25T22:30:29.158Z,6.47
2019-05-25T22:32:57.743Z,6.83
2019-05-25T22:35:26.880Z,6.83
2019-05-25T22:37:55.473Z,6.50
2019-05-25T22:40:24.114Z,7.80
2019-05-25T22:42:52.730Z,7.83
2019-05-25T22:45:21.379Z,7.20
2019-05-25T22:47:50.102Z,7.13
2019-05-25T22:50:19.534Z,7.50
2019-05-25T22:52:48.229Z,8.20
2019-05-25T22:55:18.440Z,6.90
2019-05-25T22:57:47.035Z,7.50
2019-05-25T23:00:16.130Z,7.87
2019-05-25T23:02:44.746Z,7.27
2019-05-25T23:05:13.681Z,7.50
2019-05-25T23:07:42.477Z,7.03
2019-05-25T23:10:11.929Z,7.67
2019-05-25T23:12:40.629Z,6.97
2019-05-25T23:15:09.690Z,7.37
2019-05-25T23:17:38.644Z,7.23
2019-05-25T23:20:08.756Z,7.30
2019-05-25T23:22:37.461Z,7.43
2019-05-25T23:25:06.988Z,7.70
2019-05-25T23:27:35.608Z,8.07
2019-05-25T23:30:05.975Z,8.07
2019-05-25T23:32:35.373Z,8.20
2019-05-25T23:35:04.802Z,7.87
2019-05-25T23:37:33.487Z,7.10
2019-05-25T23:40:02.146Z,7.40
2019-05-25T23:42:30.824Z,7.80
2019-05-25T23:44:59.527Z,8.30
2019-05-25T23:47:28.113Z,7.67
2019-05-25T23:49:59.603Z,8.07
2019-05-25T23:52:27.014Z,7.30
2019-05-25T23:54:55.634Z,7.53
2019-05-25T23:57:24.208Z,8.07
2019-05-25T23:59:52.836Z,8.37
